Du har inga inställningar för hoppväder.nu

Hoppväder.nu

Senast uppdaterat 02:12

UTC-tid

2020-07-07 kl. 00:12


Sol och måne

Solen går upp 3:41 och går ner 23:10 (beräknade cirkatider)
Nästa fullmåne blir om 27 dagar (2020-08-03)

METAR

ESSA (Arlanda, Stockholm)
(1462 minuter sedan)
ESSA 062350Z 27010KT 9999 FEW015 SCT022 BKN043 OVC140 12/10 Q0994 TEMPO SHRA BKN012 SCT040CB=



ESSD (Borlänge)
(1462 minuter sedan)
ESSD 062350Z AUTO 27010KT 9999 BKN041/// OVC053/// 11/07 Q0995=



EFMA (Mariehamn)
(1462 minuter sedan)
EFMA 062350Z AUTO 21007KT 180V250 9999 BKN012 13/11 Q0994=



ESOW (Västerås)
(1462 minuter sedan)
ESOW 062350Z AUTO 26008KT 230V300 9999 OVC041/// 13/09 Q0996=






TAF

ESSA (Arlanda, Stockholm)
(1482 minuter sedan)
ESSA 062330Z 0700/0724 27010KT 9999 SCT012 BKN030 PROB40 0700/0702 BKN012 PROB40 0711/0713 SCT040TCU PROB40 0713/0718 SHRA BKN045CB=



ESSD (Borlänge)
ESSD



EFMA (Mariehamn)
(1459 minuter sedan)
EFMA AMD 062353Z 0700/0709 20011KT 9999 FEW011 BECMG 0700/0702 27014KT TEMPO 0700/0702 BKN012 PROB30 0702/0709 FEW025TCU=



ESOW (Västerås)
ESOW





Kodnycklar till TAF och METAR






LHP

(Gryttjom är område se34e i Delområde 1)

Prognos är inte uppdaterad






Preliminär prognos